createdAt,value
2022-09-30T00:01:40.851Z,3.50
2022-09-30T00:04:11.748Z,3.78
2022-09-30T00:06:41.128Z,3.78
2022-09-30T00:09:11.489Z,3.92
2022-09-30T00:11:42.634Z,4.13
2022-09-30T00:14:17.430Z,3.80
2022-09-30T00:16:46.701Z,4.15
2022-09-30T00:19:15.808Z,4.10
2022-09-30T00:21:44.782Z,4.47
2022-09-30T00:26:46.785Z,4.78
2022-09-30T00:29:15.885Z,4.80
2022-09-30T00:31:45.183Z,4.70
2022-09-30T00:34:14.109Z,4.30
2022-09-30T00:36:44.820Z,3.95
2022-09-30T00:39:16.249Z,4.45
2022-09-30T00:41:48.156Z,4.68
2022-09-30T00:44:38.201Z,4.68
2022-09-30T00:47:08.302Z,4.68
2022-09-30T00:49:39.159Z,4.95
2022-09-30T00:52:08.594Z,4.25
2022-09-30T00:54:37.808Z,3.83
2022-09-30T00:57:09.854Z,4.60
2022-09-30T01:02:11.733Z,4.18
2022-09-30T01:04:45.324Z,3.72
2022-09-30T01:07:15.731Z,4.38
2022-09-30T01:09:47.843Z,5.25
2022-09-30T01:14:53.548Z,4.35
2022-09-30T01:17:28.059Z,3.88
2022-09-30T01:20:05.569Z,4.63
2022-09-30T01:22:42.230Z,4.30
2022-09-30T01:25:29.408Z,4.38
2022-09-30T01:28:18.610Z,4.20
2022-09-30T01:31:05.817Z,4.30
2022-09-30T01:33:40.397Z,3.88
2022-09-30T01:36:20.744Z,4.40
2022-09-30T01:38:54.803Z,4.40
2022-09-30T01:41:28.222Z,4.28
2022-09-30T01:44:04.218Z,4.50
2022-09-30T01:46:44.170Z,3.80
2022-09-30T01:49:16.077Z,4.22
2022-09-30T01:51:47.139Z,3.70
2022-09-30T01:54:20.415Z,4.47
2022-09-30T01:56:51.453Z,4.65
2022-09-30T01:59:22.956Z,4.73
2022-09-30T02:01:55.174Z,5.28
2022-09-30T02:04:27.111Z,4.80
2022-09-30T02:06:59.472Z,4.60
2022-09-30T02:09:31.328Z,5.25
2022-09-30T02:12:01.887Z,5.07
2022-09-30T02:14:35.025Z,4.85
2022-09-30T02:17:24.761Z,5.78
2022-09-30T02:19:55.860Z,4.45
2022-09-30T02:22:28.385Z,5.40
2022-09-30T02:25:02.568Z,4.95
2022-09-30T02:27:34.559Z,4.97
2022-09-30T02:30:04.368Z,4.97
2022-09-30T02:32:37.167Z,5.15
2022-09-30T02:35:08.328Z,4.72
2022-09-30T02:37:38.489Z,5.67
2022-09-30T02:40:10.744Z,5.88
2022-09-30T02:42:42.052Z,4.95
2022-09-30T02:45:11.739Z,4.90
2022-09-30T02:47:48.928Z,5.30
2022-09-30T02:50:20.164Z,5.38
2022-09-30T02:52:55.374Z,4.85
2022-09-30T02:55:28.559Z,5.68
2022-09-30T02:57:59.510Z,5.45
2022-09-30T03:00:28.945Z,5.65
2022-09-30T03:03:01.067Z,5.43
2022-09-30T03:05:29.999Z,4.75
2022-09-30T03:07:58.987Z,5.68
2022-09-30T03:10:28.100Z,5.43
2022-09-30T03:13:12.754Z,6.38
2022-09-30T03:15:47.858Z,6.40
2022-09-30T03:18:27.873Z,5.95
2022-09-30T03:21:05.454Z,5.95
2022-09-30T03:24:07.634Z,6.07
2022-09-30T03:26:39.992Z,6.07
2022-09-30T03:29:12.518Z,6.75
2022-09-30T03:31:44.418Z,7.05
2022-09-30T03:36:45.233Z,7.22
2022-09-30T03:41:44.110Z,6.05
2022-09-30T03:44:14.278Z,6.15
2022-09-30T03:46:44.953Z,5.85
2022-09-30T03:49:16.839Z,5.55
2022-09-30T03:51:49.845Z,6.35
2022-09-30T03:54:20.007Z,6.20
2022-09-30T03:56:49.012Z,6.85
2022-09-30T03:59:21.830Z,6.38
2022-09-30T04:01:51.244Z,6.43
2022-09-30T04:04:20.183Z,6.60
2022-09-30T04:06:50.656Z,6.55
2022-09-30T04:09:19.827Z,5.55
2022-09-30T04:11:48.793Z,6.68
2022-09-30T04:14:17.876Z,6.28
2022-09-30T04:16:50.670Z,8.30
2022-09-30T04:19:23.259Z,8.02
2022-09-30T04:21:55.051Z,7.45
2022-09-30T04:24:24.786Z,7.47
2022-09-30T04:26:53.910Z,7.68
2022-09-30T04:29:22.923Z,9.32
2022-09-30T04:31:52.086Z,8.77
2022-09-30T04:34:21.170Z,8.75
2022-09-30T04:36:50.164Z,9.88
2022-09-30T04:39:20.585Z,9.55
2022-09-30T04:41:50.611Z,9.93
2022-09-30T04:44:19.594Z,11.73
2022-09-30T04:46:48.751Z,13.40
2022-09-30T04:49:17.726Z,12.35
2022-09-30T04:51:46.820Z,13.82
2022-09-30T04:54:18.863Z,16.45
2022-09-30T04:56:49.328Z,15.80
2022-09-30T04:59:18.392Z,14.55
2022-09-30T05:01:47.439Z,15.38
2022-09-30T05:04:16.917Z,15.52
2022-09-30T05:06:46.003Z,14.00
2022-09-30T05:09:15.079Z,15.23
2022-09-30T05:11:44.121Z,14.77
2022-09-30T05:14:14.466Z,15.07
2022-09-30T05:16:43.468Z,15.85
2022-09-30T05:19:12.452Z,14.15
2022-09-30T05:21:43.164Z,13.57
2022-09-30T05:24:12.307Z,12.70
2022-09-30T05:26:41.697Z,13.57
2022-09-30T05:29:11.225Z,13.63
2022-09-30T05:31:42.523Z,13.23
2022-09-30T05:34:11.621Z,13.02
2022-09-30T05:36:40.703Z,12.43
2022-09-30T05:39:09.633Z,12.63
2022-09-30T05:41:38.677Z,11.52
2022-09-30T05:44:09.296Z,12.52
2022-09-30T05:46:38.364Z,13.57
2022-09-30T05:49:08.773Z,11.77
2022-09-30T05:51:37.727Z,12.73
2022-09-30T05:54:06.888Z,12.05
2022-09-30T05:56:38.256Z,13.07
2022-09-30T05:59:07.646Z,15.30
2022-09-30T06:01:36.611Z,12.18
2022-09-30T06:04:05.663Z,12.48
2022-09-30T06:06:36.155Z,14.38
2022-09-30T06:09:05.142Z,14.55
2022-09-30T06:11:35.020Z,14.18
2022-09-30T06:14:04.892Z,14.52
2022-09-30T06:16:33.980Z,13.77
2022-09-30T06:19:03.116Z,12.60
2022-09-30T06:21:32.149Z,14.20
2022-09-30T06:24:02.545Z,12.52
2022-09-30T06:26:31.458Z,13.98
2022-09-30T06:29:00.603Z,11.95
2022-09-30T06:31:31.017Z,11.88
2022-09-30T06:34:01.708Z,12.90
2022-09-30T06:36:33.455Z,13.23
2022-09-30T06:39:04.176Z,11.73
2022-09-30T06:41:33.192Z,11.90
2022-09-30T06:44:02.615Z,9.35
2022-09-30T06:46:32.112Z,9.75
2022-09-30T06:49:11.920Z,9.73
2022-09-30T06:51:43.120Z,9.77
2022-09-30T06:54:13.729Z,9.73
2022-09-30T06:56:44.093Z,8.95
2022-09-30T06:59:17.137Z,8.70
2022-09-30T07:01:46.473Z,8.85
2022-09-30T07:04:16.979Z,8.82
2022-09-30T07:06:46.131Z,8.90
2022-09-30T07:09:16.482Z,7.88
2022-09-30T07:11:45.731Z,8.73
2022-09-30T07:14:16.022Z,9.65
2022-09-30T07:16:45.402Z,9.10
2022-09-30T07:19:15.662Z,8.93
2022-09-30T07:21:44.638Z,8.88
2022-09-30T07:24:13.573Z,7.97
2022-09-30T07:26:45.448Z,7.78
2022-09-30T07:29:14.609Z,7.43
2022-09-30T07:31:44.048Z,7.38
2022-09-30T07:34:13.090Z,7.05
2022-09-30T07:36:42.279Z,5.63
2022-09-30T07:39:12.430Z,6.53
2022-09-30T07:41:45.198Z,6.85
2022-09-30T07:44:16.596Z,7.22
2022-09-30T07:46:46.055Z,7.10
2022-09-30T07:49:20.888Z,7.75
2022-09-30T07:51:50.384Z,7.18
2022-09-30T07:54:21.181Z,7.40
2022-09-30T07:57:10.157Z,8.13
2022-09-30T07:59:41.451Z,7.85
2022-09-30T08:02:13.623Z,7.57
2022-09-30T08:04:44.216Z,9.75
2022-09-30T08:07:15.341Z,9.30
2022-09-30T08:09:44.545Z,8.18
2022-09-30T08:12:14.400Z,8.35
2022-09-30T08:14:45.830Z,9.65
2022-09-30T08:17:15.111Z,9.10
2022-09-30T08:19:44.941Z,7.97
2022-09-30T08:22:15.424Z,8.50
2022-09-30T08:24:44.397Z,8.38
2022-09-30T08:27:13.992Z,9.82
2022-09-30T08:29:54.464Z,9.15
2022-09-30T08:32:26.800Z,9.00
2022-09-30T08:34:55.993Z,8.43
2022-09-30T08:37:25.208Z,7.97
2022-09-30T08:39:55.075Z,7.82
2022-09-30T08:42:37.988Z,6.97
2022-09-30T08:45:12.266Z,6.32
2022-09-30T08:47:48.835Z,6.47
2022-09-30T08:50:21.825Z,6.45
2022-09-30T08:52:53.308Z,6.38
2022-09-30T08:55:25.592Z,6.18
2022-09-30T08:57:56.120Z,5.65
2022-09-30T09:00:26.462Z,5.93
2022-09-30T09:02:58.297Z,6.28
2022-09-30T09:05:33.886Z,5.60
2022-09-30T09:08:06.090Z,5.00
2022-09-30T09:13:10.662Z,5.70
2022-09-30T09:15:47.328Z,5.78
2022-09-30T09:18:25.973Z,5.40
2022-09-30T09:21:00.142Z,5.32
2022-09-30T09:23:33.098Z,5.15
2022-09-30T09:26:02.711Z,5.55
2022-09-30T09:28:37.265Z,5.53
2022-09-30T09:31:07.484Z,5.32
2022-09-30T09:33:40.623Z,4.43
2022-09-30T09:36:20.953Z,4.90
2022-09-30T09:38:59.638Z,5.28
2022-09-30T09:41:33.423Z,4.50
2022-09-30T09:44:04.626Z,4.57
2022-09-30T09:46:36.693Z,4.53
2022-09-30T09:51:38.781Z,4.80
2022-09-30T09:54:10.382Z,5.00
2022-09-30T09:56:39.757Z,4.43
2022-09-30T09:59:11.162Z,3.65
2022-09-30T10:01:42.349Z,3.58
2022-09-30T10:04:24.604Z,4.10
2022-09-30T10:06:58.297Z,3.55
2022-09-30T10:09:35.278Z,3.80
2022-09-30T10:12:24.216Z,3.42
2022-09-30T10:14:57.200Z,3.72
2022-09-30T10:17:30.406Z,4.50
2022-09-30T10:20:07.603Z,3.83
2022-09-30T10:22:39.726Z,3.78
2022-09-30T10:25:18.739Z,4.18
2022-09-30T10:27:53.675Z,4.00
2022-09-30T10:30:46.925Z,3.40
2022-09-30T10:33:21.543Z,3.03
2022-09-30T10:36:03.761Z,3.28
2022-09-30T10:38:37.771Z,3.60
2022-09-30T10:41:07.946Z,2.97
2022-09-30T10:43:41.668Z,2.83
2022-09-30T10:46:25.782Z,2.95
2022-09-30T10:48:56.276Z,3.15
2022-09-30T10:51:28.409Z,2.80
2022-09-30T10:53:59.284Z,2.90
2022-09-30T10:56:39.837Z,3.25
2022-09-30T10:59:19.237Z,2.67
2022-09-30T11:01:53.705Z,2.45
2022-09-30T11:04:29.077Z,2.65
2022-09-30T11:07:02.185Z,2.53
2022-09-30T11:09:40.198Z,3.25
2022-09-30T11:12:15.995Z,2.97
2022-09-30T11:14:52.454Z,2.58
2022-09-30T11:17:27.770Z,2.90
2022-09-30T11:20:05.943Z,2.97
2022-09-30T11:22:41.956Z,3.28
2022-09-30T11:25:24.547Z,3.60
2022-09-30T11:28:05.289Z,3.60
2022-09-30T11:30:39.431Z,2.53
2022-09-30T11:33:16.199Z,3.20
2022-09-30T11:35:49.597Z,2.92
2022-09-30T11:38:24.478Z,2.50
2022-09-30T11:40:58.830Z,2.75
2022-09-30T11:43:33.878Z,2.80
2022-09-30T11:46:12.350Z,3.03
2022-09-30T11:48:46.491Z,2.40
2022-09-30T11:51:22.108Z,2.40
2022-09-30T11:53:58.634Z,2.15
2022-09-30T11:56:35.773Z,2.42
2022-09-30T11:59:07.442Z,2.28
2022-09-30T12:01:39.454Z,1.95
2022-09-30T12:04:10.385Z,2.20
2022-09-30T12:06:42.985Z,2.53
2022-09-30T12:09:16.802Z,1.50
2022-09-30T12:11:53.283Z,1.60
2022-09-30T12:14:29.324Z,1.70
2022-09-30T12:16:59.584Z,1.25
2022-09-30T12:19:31.248Z,1.42
2022-09-30T12:22:02.804Z,1.42
2022-09-30T12:24:35.779Z,1.08
2022-09-30T12:27:07.038Z,1.58
2022-09-30T12:29:56.643Z,1.23
2022-09-30T12:32:44.019Z,1.42
2022-09-30T12:35:28.374Z,1.13
2022-09-30T12:38:06.356Z,0.95
2022-09-30T12:40:50.210Z,1.20
2022-09-30T12:43:30.524Z,1.42
2022-09-30T12:46:18.172Z,1.20
2022-09-30T12:48:50.032Z,0.90
2022-09-30T12:51:26.014Z,1.02
2022-09-30T12:53:59.354Z,0.85
2022-09-30T12:56:29.267Z,0.98
2022-09-30T12:59:01.079Z,0.70
2022-09-30T13:01:32.970Z,1.00
2022-09-30T13:04:16.759Z,0.98
2022-09-30T13:07:05.343Z,1.30
2022-09-30T13:09:36.426Z,0.60
2022-09-30T13:12:19.827Z,0.88
2022-09-30T13:15:15.850Z,0.70
2022-09-30T13:17:46.094Z,0.98
2022-09-30T13:20:30.139Z,0.80
2022-09-30T13:23:00.165Z,0.70
2022-09-30T13:25:29.215Z,0.77
2022-09-30T13:28:20.490Z,0.93
2022-09-30T13:30:51.345Z,0.73
2022-09-30T13:33:43.291Z,1.00
2022-09-30T13:36:20.472Z,0.90
2022-09-30T13:39:07.538Z,1.20
2022-09-30T13:41:41.504Z,0.90
2022-09-30T13:44:13.789Z,1.13
2022-09-30T13:49:20.279Z,1.05
2022-09-30T13:51:49.479Z,1.13
2022-09-30T13:54:24.477Z,1.00
2022-09-30T13:56:53.799Z,1.13
2022-09-30T13:59:34.269Z,1.25
2022-09-30T14:02:12.266Z,1.45
2022-09-30T14:05:06.558Z,1.30
2022-09-30T14:07:44.410Z,1.58
2022-09-30T14:10:29.313Z,1.55
2022-09-30T14:13:09.410Z,1.67
2022-09-30T14:16:01.221Z,1.35
2022-09-30T14:18:53.430Z,1.35
2022-09-30T14:21:29.239Z,1.40
2022-09-30T14:24:04.263Z,1.33
2022-09-30T14:26:40.451Z,1.20
2022-09-30T14:29:11.678Z,1.65
2022-09-30T14:31:45.999Z,1.40
2022-09-30T14:34:16.656Z,1.80
2022-09-30T14:36:46.235Z,1.83
2022-09-30T14:39:18.869Z,1.23
2022-09-30T14:41:51.478Z,2.35
2022-09-30T14:44:23.215Z,1.20
2022-09-30T14:46:57.353Z,1.27
2022-09-30T14:49:34.260Z,1.08
2022-09-30T14:52:04.173Z,1.10
2022-09-30T14:54:35.185Z,0.95
2022-09-30T14:57:04.939Z,1.38
2022-09-30T14:59:38.321Z,1.20
2022-09-30T15:02:15.729Z,1.30
2022-09-30T15:04:49.185Z,1.08
2022-09-30T15:07:20.529Z,1.50
2022-09-30T15:09:52.736Z,2.13
2022-09-30T15:14:52.821Z,1.58
2022-09-30T15:17:23.414Z,1.60
2022-09-30T15:19:53.827Z,2.10
2022-09-30T15:22:23.995Z,1.38
2022-09-30T15:24:55.962Z,1.33
2022-09-30T15:27:27.557Z,1.58
2022-09-30T15:29:57.695Z,1.50
2022-09-30T15:32:27.549Z,1.30
2022-09-30T15:34:58.821Z,1.80
2022-09-30T15:37:33.715Z,1.60
2022-09-30T15:40:22.210Z,1.67
2022-09-30T15:42:56.424Z,1.83
2022-09-30T15:45:34.485Z,1.83
2022-09-30T15:48:05.759Z,1.92
2022-09-30T15:50:38.898Z,1.67
2022-09-30T15:53:16.969Z,1.63
2022-09-30T15:55:50.096Z,1.85
2022-09-30T15:58:46.594Z,2.13
2022-09-30T16:01:17.565Z,1.88
2022-09-30T16:03:54.381Z,1.88
2022-09-30T16:06:28.398Z,1.80
2022-09-30T16:09:03.100Z,1.80
2022-09-30T16:11:36.816Z,1.95
2022-09-30T16:14:07.802Z,2.65
2022-09-30T16:16:38.138Z,2.17
2022-09-30T16:19:07.703Z,2.20
2022-09-30T16:21:44.986Z,2.42
2022-09-30T16:24:32.934Z,1.85
2022-09-30T16:27:21.046Z,2.45
2022-09-30T16:29:50.198Z,2.15
2022-09-30T16:32:19.658Z,2.60
2022-09-30T16:34:48.760Z,2.75
2022-09-30T16:37:20.675Z,1.67
2022-09-30T16:39:50.320Z,2.22
2022-09-30T16:42:21.042Z,2.70
2022-09-30T16:44:50.461Z,2.42
2022-09-30T16:47:22.131Z,3.10
2022-09-30T16:49:52.045Z,1.88
2022-09-30T16:52:21.304Z,2.20
2022-09-30T16:54:50.822Z,1.30
2022-09-30T16:57:22.286Z,1.60
2022-09-30T16:59:53.732Z,2.22
2022-09-30T17:02:23.331Z,1.90
2022-09-30T17:04:53.137Z,1.55
2022-09-30T17:07:22.143Z,2.00
2022-09-30T17:09:51.583Z,2.25
2022-09-30T17:12:22.204Z,2.15
2022-09-30T17:14:56.920Z,2.58
2022-09-30T17:17:26.003Z,3.40
2022-09-30T17:19:58.267Z,3.47
2022-09-30T17:24:57.001Z,2.08
2022-09-30T17:27:29.028Z,1.60
2022-09-30T17:29:58.950Z,2.17
2022-09-30T17:32:28.068Z,1.70
2022-09-30T17:34:57.790Z,1.23
2022-09-30T17:37:27.894Z,2.40
2022-09-30T17:39:57.198Z,1.63
2022-09-30T17:42:44.476Z,1.50
2022-09-30T17:45:15.785Z,1.92
2022-09-30T17:47:44.804Z,1.20
2022-09-30T17:50:14.403Z,1.85
2022-09-30T17:52:43.669Z,1.67
2022-09-30T17:55:13.283Z,1.65
2022-09-30T17:57:42.483Z,1.63
2022-09-30T18:00:12.696Z,2.10
2022-09-30T18:02:45.086Z,1.77
2022-09-30T18:05:14.623Z,2.17
2022-09-30T18:07:43.846Z,1.63
2022-09-30T18:10:13.017Z,1.45
2022-09-30T18:12:42.110Z,2.30
2022-09-30T18:15:11.856Z,1.35
2022-09-30T18:17:40.999Z,2.05
2022-09-30T18:20:12.264Z,1.70
2022-09-30T18:22:41.565Z,1.98
2022-09-30T18:25:23.978Z,1.60
2022-09-30T18:27:59.196Z,1.20
2022-09-30T18:30:29.165Z,1.48
2022-09-30T18:32:59.376Z,1.92
2022-09-30T18:35:30.242Z,1.77
2022-09-30T18:37:59.223Z,1.30
2022-09-30T18:40:29.054Z,1.70
2022-09-30T18:42:59.371Z,1.85
2022-09-30T18:45:28.927Z,2.55
2022-09-30T18:47:59.069Z,2.03
2022-09-30T18:50:29.480Z,1.83
2022-09-30T18:53:05.660Z,1.30
2022-09-30T18:55:38.656Z,2.20
2022-09-30T18:58:07.987Z,1.63
2022-09-30T19:00:37.138Z,1.73
2022-09-30T19:03:10.249Z,1.10
2022-09-30T19:05:39.813Z,1.52
2022-09-30T19:08:10.651Z,1.67
2022-09-30T19:10:43.637Z,1.60
2022-09-30T19:13:12.654Z,1.08
2022-09-30T19:15:42.827Z,1.10
2022-09-30T19:18:14.292Z,1.17
2022-09-30T19:20:46.878Z,2.83
2022-09-30T19:23:17.269Z,1.58
2022-09-30T19:25:46.947Z,2.40
2022-09-30T19:28:16.430Z,0.98
2022-09-30T19:30:48.448Z,1.42
2022-09-30T20:02:57.813Z,0.70
2022-09-30T20:05:27.439Z,1.33
2022-09-30T20:07:57.224Z,1.05
2022-09-30T20:10:26.660Z,1.27
2022-09-30T20:12:56.106Z,1.35
2022-09-30T20:15:46.079Z,0.60
2022-09-30T20:18:18.157Z,0.50
2022-09-30T20:20:47.822Z,1.02
2022-09-30T20:23:19.420Z,0.55
2022-09-30T20:25:51.583Z,0.30
2022-09-30T20:28:21.600Z,0.75
2022-09-30T20:30:50.928Z,0.60
2022-09-30T20:33:25.531Z,0.50
2022-09-30T20:35:55.231Z,0.40
2022-09-30T20:38:25.590Z,0.38
2022-09-30T20:40:58.294Z,0.60
2022-09-30T20:43:30.120Z,0.90
2022-09-30T20:46:01.521Z,0.50
2022-09-30T20:48:34.415Z,0.28
2022-09-30T20:51:08.384Z,0.20
2022-09-30T20:53:39.797Z,0.30
2022-09-30T20:56:09.711Z,0.30
2022-09-30T20:58:39.305Z,0.30
2022-09-30T21:01:10.887Z,0.55
2022-09-30T21:03:41.278Z,0.65
2022-09-30T21:06:19.435Z,0.30
2022-09-30T21:08:51.212Z,0.57
2022-09-30T21:11:21.450Z,0.40
2022-09-30T21:13:52.159Z,0.50
2022-09-30T21:16:22.675Z,0.32
2022-09-30T21:18:52.919Z,0.73
2022-09-30T21:21:24.849Z,0.43
2022-09-30T21:23:55.400Z,0.30
2022-09-30T21:26:25.267Z,0.20
2022-09-30T21:28:54.518Z,0.57
2022-09-30T21:31:25.548Z,0.10
2022-09-30T21:33:56.597Z,0.30
2022-09-30T21:36:28.265Z,0.20
2022-09-30T21:39:02.795Z,0.20
2022-09-30T21:41:33.451Z,0.20
2022-09-30T21:44:05.378Z,0.20
2022-09-30T21:46:35.729Z,0.30
2022-09-30T21:49:07.488Z,0.20
2022-09-30T21:51:40.955Z,0.30
2022-09-30T21:54:19.867Z,0.40
2022-09-30T21:56:51.608Z,0.40
2022-09-30T21:59:22.205Z,0.30
2022-09-30T22:01:52.747Z,0.40
2022-09-30T22:04:22.287Z,0.45
2022-09-30T22:06:53.840Z,0.40
2022-09-30T22:09:24.263Z,0.30
2022-09-30T22:11:53.679Z,0.22
2022-09-30T22:17:17.563Z,0.20
2022-09-30T22:19:49.361Z,0.65
2022-09-30T22:24:49.232Z,0.30
2022-09-30T22:27:18.566Z,0.22
2022-09-30T22:29:48.942Z,0.30
2022-09-30T22:32:18.106Z,0.50
2022-09-30T22:35:05.069Z,0.40
2022-09-30T22:37:53.447Z,0.45
2022-09-30T22:40:26.903Z,0.60
2022-09-30T22:43:04.988Z,0.90
2022-09-30T22:45:36.057Z,0.80
2022-09-30T22:48:05.676Z,0.90
2022-09-30T22:50:44.683Z,0.73
2022-09-30T22:53:13.820Z,0.52
2022-09-30T22:55:44.408Z,0.80
2022-09-30T22:58:13.560Z,1.10
2022-09-30T23:00:42.876Z,0.90
2022-09-30T23:03:12.124Z,0.98
2022-09-30T23:05:41.183Z,1.33
2022-09-30T23:08:11.161Z,0.82
2022-09-30T23:10:40.549Z,0.82
2022-09-30T23:13:12.986Z,1.27
2022-09-30T23:15:42.185Z,1.27
2022-09-30T23:18:11.241Z,1.42
2022-09-30T23:20:41.053Z,0.93
2022-09-30T23:23:10.094Z,1.15
2022-09-30T23:25:39.089Z,1.38
2022-09-30T23:28:08.309Z,2.03
2022-09-30T23:30:38.917Z,1.17
2022-09-30T23:33:10.918Z,0.98
2022-09-30T23:35:40.064Z,2.63
2022-09-30T23:38:09.285Z,1.40
2022-09-30T23:40:43.881Z,1.60
2022-09-30T23:43:13.129Z,1.40
2022-09-30T23:45:44.185Z,1.70
2022-09-30T23:48:13.351Z,1.38
2022-09-30T23:50:42.792Z,2.05
2022-09-30T23:53:11.839Z,2.55
2022-09-30T23:55:41.359Z,1.80
2022-09-30T23:58:10.417Z,2.47
